Time;durP1;ratioP1;P1;durP2;ratioP2;P2;SDS_P1;SDS_P2;PMS_P1;PMS_P2;Temp;Humidity;BMP_temperature;BMP_pressure;BME280_temperature;BME280_humidity;BME280_pressure;Samples;Min_cycle;Max_cycle;Signal;HPM_P1;HPM_P2
2022/05/04 00:01:17;;;;;;;9.52;2.80;;;;;;;;;;5280896;28;20067;-68
2022/05/04 00:03:48;;;;;;;13.27;2.53;;;;;;;;;;5280820;28;20290;-68
2022/05/04 00:06:19;;;;;;;8.73;2.40;;;;;;;;;;5283960;28;20016;-68
2022/05/04 00:08:50;;;;;;;9.98;2.33;;;;;;;;;;5284493;28;20062;-68
2022/05/04 00:11:22;;;;;;;9.45;3.20;;;;;;;;;;5283734;28;20263;-68
2022/05/04 00:13:53;;;;;;;7.55;2.15;;;;;;;;;;5284645;28;20305;-68
2022/05/04 00:16:24;;;;;;;11.60;2.90;;;;;;;;;;5283813;28;20028;-68
2022/05/04 00:18:55;;;;;;;14.82;3.53;;;;;;;;;;5283901;27;20324;-68
2022/05/04 00:21:26;;;;;;;7.93;2.72;;;;;;;;;;5283902;28;20102;-68
2022/05/04 00:23:58;;;;;;;10.57;3.05;;;;;;;;;;5284316;28;20270;-68
2022/05/04 00:26:29;;;;;;;8.60;2.67;;;;;;;;;;5282931;28;20370;-68
2022/05/04 00:29:00;;;;;;;15.13;3.60;;;;;;;;;;5284303;28;20261;-68
2022/05/04 00:31:31;;;;;;;10.07;3.20;;;;;;;;;;5283467;28;20028;-69
2022/05/04 00:34:02;;;;;;;9.95;3.13;;;;;;;;;;5283729;28;20289;-69
2022/05/04 00:36:33;;;;;;;12.10;3.55;;;;;;;;;;5283569;28;20294;-68
2022/05/04 00:39:05;;;;;;;10.35;2.70;;;;;;;;;;5283693;28;20189;-68
2022/05/04 00:41:36;;;;;;;11.88;3.80;;;;;;;;;;5282501;28;20753;-67
2022/05/04 00:44:07;;;;;;;10.48;3.30;;;;;;;;;;5284032;28;20020;-68
2022/05/04 00:46:38;;;;;;;11.80;3.97;;;;;;;;;;5282916;28;20059;-68
2022/05/04 00:49:10;;;;;;;11.00;3.40;;;;;;;;;;5284175;28;20094;-68
2022/05/04 00:51:41;;;;;;;8.25;4.53;;;;;;;;;;5283404;28;20271;-69
2022/05/04 00:54:12;;;;;;;12.10;3.88;;;;;;;;;;5283164;28;20017;-69
2022/05/04 00:56:43;;;;;;;12.60;3.75;;;;;;;;;;5283185;28;20490;-69
2022/05/04 00:59:15;;;;;;;10.70;3.80;;;;;;;;;;5284259;28;20607;-69
2022/05/04 01:01:46;;;;;;;12.77;4.00;;;;;;;;;;5282755;28;20036;-68
2022/05/04 01:04:18;;;;;;;16.17;4.68;;;;;;;;;;5283697;28;20060;-68
2022/05/04 01:06:49;;;;;;;8.00;3.55;;;;;;;;;;5283024;28;20024;-69
2022/05/04 01:09:20;;;;;;;11.98;4.10;;;;;;;;;;5282225;28;20516;-67
2022/05/04 01:11:52;;;;;;;7.43;2.63;;;;;;;;;;5283577;28;20016;-67
2022/05/04 01:14:23;;;;;;;9.88;3.30;;;;;;;;;;5282763;28;20083;-68
2022/05/04 01:16:54;;;;;;;6.48;3.02;;;;;;;;;;5281719;28;20037;-68
2022/05/04 01:19:25;;;;;;;16.15;3.95;;;;;;;;;;5282809;28;20009;-68
2022/05/04 01:21:56;;;;;;;7.72;3.13;;;;;;;;;;5282574;28;20684;-68
2022/05/04 01:24:27;;;;;;;11.25;3.72;;;;;;;;;;5282769;28;20270;-68
2022/05/04 01:26:59;;;;;;;11.60;3.60;;;;;;;;;;5283359;28;20111;-68
2022/05/04 01:29:30;;;;;;;7.72;3.03;;;;;;;;;;5281878;28;20749;-68
2022/05/04 01:32:01;;;;;;;8.23;3.15;;;;;;;;;;5283231;28;20266;-68
2022/05/04 01:34:32;;;;;;;8.43;3.42;;;;;;;;;;5282688;28;20300;-68
2022/05/04 01:37:03;;;;;;;8.98;2.90;;;;;;;;;;5282540;28;20336;-68
2022/05/04 01:39:35;;;;;;;7.47;3.47;;;;;;;;;;5282291;28;20033;-68
2022/05/04 01:42:13;;;;;;;9.57;3.30;;;;;;;;;;5282939;28;20012;-68
2022/05/04 01:44:45;;;;;;;9.95;3.35;;;;;;;;;;5281719;28;20368;-68
2022/05/04 01:47:16;;;;;;;9.88;3.28;;;;;;;;;;5283254;28;20073;-68
2022/05/04 01:49:47;;;;;;;11.13;3.42;;;;;;;;;;5281538;28;20033;-69
2022/05/04 01:52:18;;;;;;;10.48;3.17;;;;;;;;;;5282627;28;20745;-68
2022/05/04 01:54:50;;;;;;;11.07;2.40;;;;;;;;;;5282485;28;20050;-68
2022/05/04 01:57:21;;;;;;;13.00;2.80;;;;;;;;;;5281831;28;20294;-68
2022/05/04 01:59:52;;;;;;;7.75;2.50;;;;;;;;;;5282731;28;20365;-69
2022/05/04 02:02:25;;;;;;;7.72;3.30;;;;;;;;;;5281890;28;20016;-69
2022/05/04 02:04:57;;;;;;;9.40;3.00;;;;;;;;;;5281657;28;20017;-68
2022/05/04 02:07:28;;;;;;;11.60;2.97;;;;;;;;;;5281852;28;20474;-68
2022/05/04 02:09:59;;;;;;;9.48;2.60;;;;;;;;;;5282333;28;20507;-68
2022/05/04 02:12:31;;;;;;;11.02;1.95;;;;;;;;;;5280900;28;20352;-67
2022/05/04 02:15:05;;;;;;;8.35;2.33;;;;;;;;;;5282330;28;20714;-67
2022/05/04 02:17:37;;;;;;;10.45;2.70;;;;;;;;;;5281599;28;20016;-67
2022/05/04 02:20:09;;;;;;;8.52;2.60;;;;;;;;;;5281354;28;20099;-68
2022/05/04 02:22:40;;;;;;;9.85;2.95;;;;;;;;;;5281591;28;20096;-67
2022/05/04 02:25:11;;;;;;;14.23;3.33;;;;;;;;;;5281384;28;20112;-67
2022/05/04 02:27:42;;;;;;;9.50;2.65;;;;;;;;;;5281473;28;20582;-67
2022/05/04 02:30:14;;;;;;;11.40;3.50;;;;;;;;;;5282076;28;20266;-68
2022/05/04 02:32:45;;;;;;;13.98;3.13;;;;;;;;;;5280929;28;20040;-68
2022/05/04 02:38:06;;;;;;;10.63;2.60;;;;;;;;;;5282332;28;20250;-67
2022/05/04 02:40:37;;;;;;;10.13;3.58;;;;;;;;;;5280828;28;20363;-68
2022/05/04 02:43:08;;;;;;;9.57;3.47;;;;;;;;;;5282193;28;20031;-66
2022/05/04 02:45:39;;;;;;;10.25;3.28;;;;;;;;;;5281389;28;20383;-67
2022/05/04 02:48:10;;;;;;;11.38;3.17;;;;;;;;;;5281280;28;20269;-68
2022/05/04 02:50:42;;;;;;;7.82;3.06;;;;;;;;;;5281500;28;20020;-68
2022/05/04 02:53:13;;;;;;;9.90;3.42;;;;;;;;;;5280708;28;20020;-69
2022/05/04 02:55:44;;;;;;;9.95;2.97;;;;;;;;;;5281187;28;20333;-68
2022/05/04 02:58:15;;;;;;;7.38;2.33;;;;;;;;;;5281645;28;20262;-68
2022/05/04 03:00:46;;;;;;;10.55;3.10;;;;;;;;;;5280224;28;20274;-69
2022/05/04 03:03:18;;;;;;;10.40;2.85;;;;;;;;;;5281631;28;20345;-68
2022/05/04 03:05:49;;;;;;;7.88;3.20;;;;;;;;;;5281064;28;20258;-68
2022/05/04 03:08:20;;;;;;;11.60;2.58;;;;;;;;;;5280569;28;20025;-69
2022/05/04 03:13:41;;;;;;;10.23;3.15;;;;;;;;;;5280989;28;20433;-67
2022/05/04 03:16:12;;;;;;;8.05;2.72;;;;;;;;;;5280439;28;20032;-68
2022/05/04 03:18:43;;;;;;;11.50;3.15;;;;;;;;;;5280734;28;20815;-67
2022/05/04 03:21:14;;;;;;;13.38;3.34;;;;;;;;;;5280867;28;20263;-68
2022/05/04 03:23:47;;;;;;;11.22;3.00;;;;;;;;;;5281027;28;20013;-67
2022/05/04 03:26:18;;;;;;;12.70;3.35;;;;;;;;;;5281299;28;20020;-68
2022/05/04 03:28:50;;;;;;;9.02;2.60;;;;;;;;;;5280200;28;20009;-68
2022/05/04 03:31:21;;;;;;;14.20;2.92;;;;;;;;;;5280941;28;20477;-68
2022/05/04 03:33:53;;;;;;;10.80;3.10;;;;;;;;;;5280993;28;20024;-69
2022/05/04 03:36:25;;;;;;;10.93;2.88;;;;;;;;;;5279329;28;20028;-68
2022/05/04 03:38:56;;;;;;;9.18;2.45;;;;;;;;;;5280362;28;20073;-67
2022/05/04 03:41:28;;;;;;;13.02;2.90;;;;;;;;;;5280537;28;20024;-68
2022/05/04 03:43:59;;;;;;;9.40;2.90;;;;;;;;;;5280826;28;20379;-68
2022/05/04 03:46:42;;;;;;;9.43;2.95;;;;;;;;;;5280708;28;20099;-68
2022/05/04 03:49:13;;;;;;;9.48;3.00;;;;;;;;;;5281234;28;20133;-68
2022/05/04 03:51:45;;;;;;;8.90;3.35;;;;;;;;;;5279552;28;20142;-67
2022/05/04 03:54:16;;;;;;;15.55;3.45;;;;;;;;;;5280819;28;20423;-68
2022/05/04 03:56:47;;;;;;;9.63;3.60;;;;;;;;;;5279491;28;20483;-68
2022/05/04 03:59:18;;;;;;;10.43;3.33;;;;;;;;;;5280640;28;20017;-67
2022/05/04 04:01:50;;;;;;;9.88;3.60;;;;;;;;;;5280433;28;20029;-67
2022/05/04 04:04:21;;;;;;;12.58;3.34;;;;;;;;;;5279485;28;20025;-68
2022/05/04 04:06:52;;;;;;;7.35;2.90;;;;;;;;;;5280703;28;20028;-68
2022/05/04 04:09:23;;;;;;;11.27;3.90;;;;;;;;;;5280149;28;20851;-67
2022/05/04 04:11:54;;;;;;;10.93;3.45;;;;;;;;;;5280257;28;20391;-67
2022/05/04 04:14:25;;;;;;;8.65;3.33;;;;;;;;;;5280275;28;20033;-68
2022/05/04 04:16:57;;;;;;;10.48;3.90;;;;;;;;;;5280823;28;20024;-68
2022/05/04 04:19:28;;;;;;;7.54;3.56;;;;;;;;;;5279486;28;20383;-69
2022/05/04 04:21:59;;;;;;;12.62;4.34;;;;;;;;;;5280854;28;20374;-68
2022/05/04 04:24:30;;;;;;;10.22;3.40;;;;;;;;;;5279496;28;20455;-67
2022/05/04 04:27:01;;;;;;;12.10;4.75;;;;;;;;;;5280771;28;20533;-68
2022/05/04 04:29:32;;;;;;;13.57;3.97;;;;;;;;;;5280110;28;20103;-68
2022/05/04 04:32:04;;;;;;;17.33;3.90;;;;;;;;;;5279937;28;20017;-68
2022/05/04 04:34:35;;;;;;;10.70;3.20;;;;;;;;;;5279927;28;20024;-68
2022/05/04 04:37:06;;;;;;;11.00;3.75;;;;;;;;;;5280321;28;20035;-68
2022/05/04 04:39:37;;;;;;;15.94;4.42;;;;;;;;;;5278991;28;20055;-68
2022/05/04 04:42:12;;;;;;;16.92;3.68;;;;;;;;;;5280803;28;20042;-68
2022/05/04 04:44:43;;;;;;;12.15;3.67;;;;;;;;;;5280312;28;20017;-68
2022/05/04 04:47:14;;;;;;;13.95;3.30;;;;;;;;;;5279809;28;20024;-68
2022/05/04 04:49:46;;;;;;;15.58;4.76;;;;;;;;;;5279993;28;20255;-68
2022/05/04 04:52:17;;;;;;;14.50;3.68;;;;;;;;;;5283501;28;20050;-68
2022/05/04 04:54:48;;;;;;;11.26;4.48;;;;;;;;;;5282719;28;20024;-68
2022/05/04 04:57:19;;;;;;;9.98;3.30;;;;;;;;;;5283778;28;20478;-68
2022/05/04 04:59:50;;;;;;;11.50;4.30;;;;;;;;;;5282732;28;20021;-68
2022/05/04 05:02:21;;;;;;;14.27;3.78;;;;;;;;;;5283356;28;20599;-68
2022/05/04 05:04:53;;;;;;;13.43;3.47;;;;;;;;;;5284195;28;20107;-67
2022/05/04 05:07:24;;;;;;;11.98;3.38;;;;;;;;;;5282370;28;20259;-68
2022/05/04 05:09:56;;;;;;;13.98;3.70;;;;;;;;;;5283542;28;20048;-68
2022/05/04 05:12:27;;;;;;;10.20;3.67;;;;;;;;;;5283214;28;20270;-69
2022/05/04 05:17:48;;;;;;;8.75;3.80;;;;;;;;;;5282770;28;20060;-68
2022/05/04 05:20:19;;;;;;;11.25;3.70;;;;;;;;;;5283282;28;20048;-68
2022/05/04 05:22:50;;;;;;;15.65;5.47;;;;;;;;;;5282325;28;20077;-67
2022/05/04 05:25:21;;;;;;;9.65;4.22;;;;;;;;;;5282688;28;20078;-68
2022/05/04 05:27:53;;;;;;;14.05;4.07;;;;;;;;;;5282970;28;20020;-69
2022/05/04 05:30:24;;;;;;;11.57;3.45;;;;;;;;;;5283016;28;20263;-69
2022/05/04 05:32:55;;;;;;;15.95;3.83;;;;;;;;;;5283750;28;20040;-69
2022/05/04 05:35:26;;;;;;;14.35;3.90;;;;;;;;;;5282204;28;20024;-67
2022/05/04 05:37:57;;;;;;;16.85;3.53;;;;;;;;;;5283690;28;20290;-71
2022/05/04 05:40:29;;;;;;;13.50;3.97;;;;;;;;;;5282933;28;20044;-71
2022/05/04 05:43:00;;;;;;;14.10;4.15;;;;;;;;;;5282924;28;20602;-71
2022/05/04 05:45:31;;;;;;;12.60;3.80;;;;;;;;;;5282988;28;20016;-68
2022/05/04 05:48:02;;;;;;;11.63;4.93;;;;;;;;;;5283093;28;20059;-69
2022/05/04 05:50:34;;;;;;;12.20;4.10;;;;;;;;;;5281941;28;20020;-69
2022/05/04 05:53:05;;;;;;;11.15;4.13;;;;;;;;;;5283446;28;20051;-69
2022/05/04 05:55:36;;;;;;;11.20;4.72;;;;;;;;;;5282659;28;20031;-69
2022/05/04 05:58:09;;;;;;;15.32;4.95;;;;;;;;;;5282493;28;20017;-69
2022/05/04 06:00:41;;;;;;;12.40;4.63;;;;;;;;;;5282279;28;20030;-69
2022/05/04 06:03:13;;;;;;;13.77;3.97;;;;;;;;;;5282124;28;20531;-69
2022/05/04 06:05:44;;;;;;;13.00;4.75;;;;;;;;;;5271205;28;20297;-68
2022/05/04 06:08:15;;;;;;;16.33;4.32;;;;;;;;;;5260979;28;20025;-69
2022/05/04 06:10:46;;;;;;;18.42;4.32;;;;;;;;;;5260050;28;20279;-68
2022/05/04 06:13:18;;;;;;;11.48;3.85;;;;;;;;;;5261534;28;20098;-68
2022/05/04 06:15:50;;;;;;;12.20;3.97;;;;;;;;;;5261555;28;20322;-69
2022/05/04 06:18:21;;;;;;;15.76;4.24;;;;;;;;;;5260724;28;20060;-69
2022/05/04 06:20:52;;;;;;;13.07;3.55;;;;;;;;;;5261725;28;20072;-68
2022/05/04 06:23:23;;;;;;;8.88;3.42;;;;;;;;;;5261089;28;20111;-67
2022/05/04 06:25:54;;;;;;;16.02;3.55;;;;;;;;;;5260638;28;20271;-68
2022/05/04 06:28:25;;;;;;;16.82;4.92;;;;;;;;;;5261158;28;20368;-71
2022/05/04 06:36:38;;;;;;;14.35;3.65;;;;;;;;;;5260793;28;20041;-69
2022/05/04 06:39:10;;;;;;;12.35;3.85;;;;;;;;;;5260818;28;20075;-69
2022/05/04 06:41:41;;;;;;;10.30;3.45;;;;;;;;;;5260702;28;20443;-69
2022/05/04 06:44:12;;;;;;;17.67;4.88;;;;;;;;;;5260795;28;20023;-70
2022/05/04 06:46:43;;;;;;;13.32;4.57;;;;;;;;;;5259166;28;20477;-69
2022/05/04 06:49:14;;;;;;;13.13;3.55;;;;;;;;;;5261584;28;20260;-71
2022/05/04 06:51:45;;;;;;;16.65;3.90;;;;;;;;;;5260473;28;20056;-67
2022/05/04 06:54:17;;;;;;;13.30;4.28;;;;;;;;;;5260684;28;20626;-69
2022/05/04 06:56:48;;;;;;;13.75;3.90;;;;;;;;;;5260607;28;20044;-69
2022/05/04 06:59:19;;;;;;;34.58;5.28;;;;;;;;;;5259828;28;20332;-70
2022/05/04 07:01:50;;;;;;;16.20;3.60;;;;;;;;;;5260981;28;20291;-70
2022/05/04 07:04:21;;;;;;;15.45;4.40;;;;;;;;;;5260539;28;20078;-69
2022/05/04 07:06:52;;;;;;;17.08;4.40;;;;;;;;;;5259644;28;20040;-69
2022/05/04 07:09:24;;;;;;;15.48;3.80;;;;;;;;;;5280114;28;20063;-69
2022/05/04 07:11:55;;;;;;;18.48;3.67;;;;;;;;;;5281623;28;20020;-68
2022/05/04 07:14:26;;;;;;;12.07;3.75;;;;;;;;;;5279153;28;20313;-69
2022/05/04 07:16:57;;;;;;;8.80;2.70;;;;;;;;;;5281010;28;20305;-69
2022/05/04 07:19:29;;;;;;;14.02;3.17;;;;;;;;;;5280367;28;20455;-69
2022/05/04 07:22:00;;;;;;;12.45;3.30;;;;;;;;;;5280392;28;20077;-70
2022/05/04 07:24:31;;;;;;;14.20;2.83;;;;;;;;;;5280661;28;20393;-70
2022/05/04 07:27:02;;;;;;;12.25;3.20;;;;;;;;;;5280844;28;20538;-70
2022/05/04 07:29:34;;;;;;;14.95;3.55;;;;;;;;;;5280115;28;20055;-70
2022/05/04 07:32:05;;;;;;;13.55;4.20;;;;;;;;;;5280789;28;20029;-71
2022/05/04 07:34:37;;;;;;;9.95;3.45;;;;;;;;;;5280109;28;20048;-70
2022/05/04 07:37:08;;;;;;;104.55;12.40;;;;;;;;;;5280553;28;20051;-69
2022/05/04 07:42:29;;;;;;;13.07;3.67;;;;;;;;;;5280262;28;20021;-68
2022/05/04 07:45:02;;;;;;;12.63;3.53;;;;;;;;;;5281000;28;20021;-69
2022/05/04 07:47:34;;;;;;;13.70;4.28;;;;;;;;;;5281415;28;20379;-70
2022/05/04 07:50:07;;;;;;;9.73;4.13;;;;;;;;;;5280306;28;20024;-71
2022/05/04 07:52:38;;;;;;;11.68;3.40;;;;;;;;;;5280544;28;20039;-70
2022/05/04 07:55:10;;;;;;;12.85;3.50;;;;;;;;;;5280479;28;20378;-69
2022/05/04 07:57:47;;;;;;;266.67;29.40;;;;;;;;;;5279766;28;20029;-69
2022/05/04 08:05:58;;;;;;;11.45;4.63;;;;;;;;;;5277973;28;20024;-69
2022/05/04 08:08:29;;;;;;;15.80;4.57;;;;;;;;;;5280145;28;20464;-69
2022/05/04 08:11:00;;;;;;;11.23;3.95;;;;;;;;;;5280253;28;20410;-68
2022/05/04 08:13:32;;;;;;;12.60;4.07;;;;;;;;;;5280432;28;20289;-69
2022/05/04 08:16:04;;;;;;;9.18;4.20;;;;;;;;;;5275974;28;20090;-69
2022/05/04 08:18:35;;;;;;;9.00;4.20;;;;;;;;;;5277832;28;20460;-70
2022/05/04 08:21:08;;;;;;;13.60;4.65;;;;;;;;;;5278355;28;20021;-69
2022/05/04 08:23:39;;;;;;;10.88;5.30;;;;;;;;;;5262451;28;20045;-70
2022/05/04 08:26:12;;;;;;;14.77;4.75;;;;;;;;;;5262398;28;20027;-70
2022/05/04 08:28:43;;;;;;;10.00;3.97;;;;;;;;;;5263892;28;20464;-70
2022/05/04 08:31:14;;;;;;;14.88;5.75;;;;;;;;;;5263174;28;20017;-69
2022/05/04 08:33:46;;;;;;;13.52;5.28;;;;;;;;;;5263805;28;20068;-69
2022/05/04 08:36:17;;;;;;;14.38;4.97;;;;;;;;;;5263660;28;20503;-69
2022/05/04 08:38:48;;;;;;;16.42;4.85;;;;;;;;;;5261898;28;20268;-69
2022/05/04 08:41:20;;;;;;;14.55;4.70;;;;;;;;;;5263356;28;20439;-69
2022/05/04 08:43:52;;;;;;;16.75;5.15;;;;;;;;;;5264193;28;20742;-69
2022/05/04 08:46:25;;;;;;;11.18;4.45;;;;;;;;;;5262603;28;20021;-69
2022/05/04 08:48:56;;;;;;;19.50;5.07;;;;;;;;;;5263650;28;20104;-69
2022/05/04 08:51:28;;;;;;;12.80;4.22;;;;;;;;;;5262892;28;20433;-69
2022/05/04 08:53:59;;;;;;;8.93;4.50;;;;;;;;;;5262882;28;20099;-69
2022/05/04 08:56:31;;;;;;;12.23;4.70;;;;;;;;;;5262696;28;20033;-70
2022/05/04 08:59:02;;;;;;;14.50;5.47;;;;;;;;;;5262446;28;20081;-70
2022/05/04 09:01:36;;;;;;;11.23;4.85;;;;;;;;;;5262857;28;20025;-70
2022/05/04 09:04:07;;;;;;;10.65;4.43;;;;;;;;;;5262688;28;20017;-70
2022/05/04 09:06:42;;;;;;;14.98;5.40;;;;;;;;;;5274212;28;20025;-69
2022/05/04 09:09:13;;;;;;;12.05;4.95;;;;;;;;;;5283576;28;20024;-70
2022/05/04 09:11:45;;;;;;;8.90;4.45;;;;;;;;;;5283124;28;20036;-70
2022/05/04 09:14:19;;;;;;;12.40;4.43;;;;;;;;;;5282603;28;20047;-70
2022/05/04 09:16:51;;;;;;;7.82;4.00;;;;;;;;;;5283540;28;20035;-70
2022/05/04 09:19:23;;;;;;;19.48;4.85;;;;;;;;;;5282860;28;20464;-70
2022/05/04 09:21:55;;;;;;;8.35;3.92;;;;;;;;;;5283094;28;20032;-71
2022/05/04 09:24:27;;;;;;;10.95;4.63;;;;;;;;;;5283272;28;20472;-71
2022/05/04 09:26:59;;;;;;;9.65;3.42;;;;;;;;;;5282845;28;20103;-70
2022/05/04 09:29:34;;;;;;;10.80;3.92;;;;;;;;;;5283265;28;20099;-71
2022/05/04 09:32:12;;;;;;;13.20;4.20;;;;;;;;;;5283662;28;20016;-70
2022/05/04 09:34:44;;;;;;;7.82;4.18;;;;;;;;;;5282797;28;20158;-70
2022/05/04 09:45:52;;;;;;;13.00;4.88;;;;;;;;;;5281737;28;20028;-71
2022/05/04 09:48:29;;;;;;;10.43;3.75;;;;;;;;;;5281550;28;20054;-70
2022/05/04 09:51:04;;;;;;;9.45;3.47;;;;;;;;;;5280479;28;20019;-69
2022/05/04 09:53:39;;;;;;;9.55;3.75;;;;;;;;;;5282475;28;20012;-68
2022/05/04 09:56:10;;;;;;;20.58;4.63;;;;;;;;;;5281431;28;20064;-67
2022/05/04 09:58:41;;;;;;;21.15;4.03;;;;;;;;;;5282362;28;20055;-69
2022/05/04 10:01:12;;;;;;;31.58;4.32;;;;;;;;;;5282286;28;20467;-69
2022/05/04 10:03:44;;;;;;;12.15;3.75;;;;;;;;;;5281704;28;20382;-68
2022/05/04 10:06:15;;;;;;;13.43;3.78;;;;;;;;;;5282023;28;20021;-68
2022/05/04 10:08:46;;;;;;;8.55;3.63;;;;;;;;;;5281027;28;20021;-68
2022/05/04 10:11:19;;;;;;;8.02;3.25;;;;;;;;;;5280656;28;20035;-68
2022/05/04 10:13:53;;;;;;;11.27;3.70;;;;;;;;;;5282692;28;20048;-69
2022/05/04 10:16:24;;;;;;;8.85;3.63;;;;;;;;;;5281374;28;20036;-69
2022/05/04 10:18:57;;;;;;;13.65;5.05;;;;;;;;;;5282905;28;20016;-68
2022/05/04 10:21:29;;;;;;;11.45;3.70;;;;;;;;;;5282361;28;20085;-66
2022/05/04 10:24:03;;;;;;;8.40;3.85;;;;;;;;;;5281759;28;20013;-67
2022/05/04 10:26:35;;;;;;;8.48;4.00;;;;;;;;;;5282343;28;20051;-68
2022/05/04 10:32:31;;;;;;;8.27;4.35;;;;;;;;;;5281916;28;20371;-68
2022/05/04 10:35:08;;;;;;;10.75;4.75;;;;;;;;;;5282324;28;20024;-69
2022/05/04 10:38:00;;;;;;;11.43;4.70;;;;;;;;;;5281021;28;20029;-68
2022/05/04 10:40:50;;;;;;;15.63;4.75;;;;;;;;;;5270532;28;20020;-68
2022/05/04 10:43:40;;;;;;;16.05;5.40;;;;;;;;;;5281806;28;20020;-68
2022/05/04 10:46:11;;;;;;;9.85;5.07;;;;;;;;;;5281171;28;20020;-67
2022/05/04 10:48:43;;;;;;;10.55;4.88;;;;;;;;;;5281980;28;20016;-68
2022/05/04 10:51:19;;;;;;;7.93;4.22;;;;;;;;;;5281763;28;20078;-68
2022/05/04 10:53:51;;;;;;;7.55;3.80;;;;;;;;;;5281768;28;20367;-68
2022/05/04 10:56:23;;;;;;;6.75;3.50;;;;;;;;;;5281081;28;20116;-68
2022/05/04 10:58:55;;;;;;;9.57;3.80;;;;;;;;;;5281034;28;20035;-68
2022/05/04 11:01:27;;;;;;;11.55;4.05;;;;;;;;;;5281552;28;20375;-68
2022/05/04 11:04:04;;;;;;;8.25;3.95;;;;;;;;;;5281986;28;20107;-68
2022/05/04 11:06:37;;;;;;;10.02;4.88;;;;;;;;;;5280650;28;20019;-69
2022/05/04 11:09:10;;;;;;;9.43;4.72;;;;;;;;;;5280920;28;20531;-69
2022/05/04 11:11:42;;;;;;;10.35;5.47;;;;;;;;;;5281141;28;20024;-69
2022/05/04 11:14:14;;;;;;;13.77;4.95;;;;;;;;;;5280130;28;20045;-69
2022/05/04 11:16:45;;;;;;;8.57;5.32;;;;;;;;;;5280567;28;20039;-69
2022/05/04 11:19:17;;;;;;;14.70;5.50;;;;;;;;;;5280440;28;20043;-69
2022/05/04 11:21:50;;;;;;;11.55;4.82;;;;;;;;;;5276948;28;20294;-69
2022/05/04 11:24:24;;;;;;;10.20;4.95;;;;;;;;;;5280478;28;20020;-68
2022/05/04 11:26:55;;;;;;;9.30;5.30;;;;;;;;;;5277529;28;20055;-68
2022/05/04 11:29:27;;;;;;;11.02;5.63;;;;;;;;;;5280238;28;20044;-70
2022/05/04 11:31:59;;;;;;;10.07;4.63;;;;;;;;;;5280788;28;20107;-68
2022/05/04 11:34:35;;;;;;;8.30;5.35;;;;;;;;;;5279778;28;20074;-70
2022/05/04 11:37:07;;;;;;;10.45;4.63;;;;;;;;;;5279576;28;20023;-70
2022/05/04 11:39:39;;;;;;;10.80;4.40;;;;;;;;;;5280748;28;20510;-68
2022/05/04 11:42:10;;;;;;;10.40;5.10;;;;;;;;;;5280063;28;20032;-67
2022/05/04 11:44:47;;;;;;;11.48;4.72;;;;;;;;;;5280648;28;20040;-67
2022/05/04 11:47:19;;;;;;;12.55;5.00;;;;;;;;;;5280378;28;20115;-70
2022/05/04 11:49:53;;;;;;;11.57;4.85;;;;;;;;;;5279809;28;20499;-67
2022/05/04 11:52:24;;;;;;;7.82;3.90;;;;;;;;;;5279722;28;20070;-68
2022/05/04 11:55:00;;;;;;;13.57;5.70;;;;;;;;;;5279169;28;20024;-68
2022/05/04 11:57:38;;;;;;;8.55;5.00;;;;;;;;;;5280160;28;20125;-67
2022/05/04 12:00:15;;;;;;;10.32;5.07;;;;;;;;;;5281017;28;20085;-68
2022/05/04 12:02:47;;;;;;;10.45;5.53;;;;;;;;;;5283016;28;20035;-68
2022/05/04 12:05:18;;;;;;;8.30;4.63;;;;;;;;;;5283433;28;20370;-68
2022/05/04 12:07:49;;;;;;;10.35;5.22;;;;;;;;;;5283905;28;20438;-68
2022/05/04 12:10:21;;;;;;;10.90;5.90;;;;;;;;;;5283694;28;20451;-69
2022/05/04 12:12:52;;;;;;;13.98;4.78;;;;;;;;;;5284710;28;20344;-68
2022/05/04 12:15:23;;;;;;;8.40;4.45;;;;;;;;;;5284124;28;20102;-68
2022/05/04 12:17:58;;;;;;;12.43;4.20;;;;;;;;;;5283980;28;20074;-68
2022/05/04 12:20:31;;;;;;;13.73;4.70;;;;;;;;;;5284140;28;20123;-68
2022/05/04 12:23:02;;;;;;;9.32;5.30;;;;;;;;;;5283949;28;20350;-69
2022/05/04 12:25:33;;;;;;;15.50;5.45;;;;;;;;;;5284390;28;20130;-68
2022/05/04 12:28:05;;;;;;;10.77;5.55;;;;;;;;;;5283968;28;20025;-69
2022/05/04 12:33:34;;;;;;;17.65;6.50;;;;;;;;;;5282494;28;20041;-69
2022/05/04 12:36:07;;;;;;;13.75;6.28;;;;;;;;;;5284205;28;20418;-70
2022/05/04 12:38:39;;;;;;;10.82;6.40;;;;;;;;;;5283348;28;20577;-69
2022/05/04 12:41:10;;;;;;;14.27;5.85;;;;;;;;;;5284343;28;20052;-69
2022/05/04 12:43:41;;;;;;;10.27;5.38;;;;;;;;;;5284228;28;20556;-70
2022/05/04 12:46:15;;;;;;;10.87;5.20;;;;;;;;;;5283099;28;20020;-70
2022/05/04 12:48:47;;;;;;;11.98;5.65;;;;;;;;;;5283944;28;20304;-70
2022/05/04 12:51:18;;;;;;;10.88;5.10;;;;;;;;;;5282836;28;20098;-70
2022/05/04 12:53:50;;;;;;;13.52;5.95;;;;;;;;;;5284337;28;20044;-70
2022/05/04 12:59:12;;;;;;;12.00;5.32;;;;;;;;;;5283196;28;20012;-70
2022/05/04 13:01:43;;;;;;;11.00;5.35;;;;;;;;;;5283958;28;20032;-69
2022/05/04 13:04:15;;;;;;;10.85;5.35;;;;;;;;;;5283569;28;20032;-69
2022/05/04 13:06:46;;;;;;;12.00;4.70;;;;;;;;;;5282118;28;20027;-69
2022/05/04 13:09:17;;;;;;;12.90;4.97;;;;;;;;;;5283769;28;20025;-69
2022/05/04 13:11:49;;;;;;;10.82;3.95;;;;;;;;;;5282355;28;20290;-68
2022/05/04 13:14:20;;;;;;;10.40;3.90;;;;;;;;;;5282518;28;20036;-69
2022/05/04 13:16:51;;;;;;;9.85;4.47;;;;;;;;;;5283823;28;20028;-70
2022/05/04 13:19:22;;;;;;;7.83;4.50;;;;;;;;;;5282521;28;20028;-70
2022/05/04 13:21:54;;;;;;;10.27;3.67;;;;;;;;;;5283843;28;20267;-68
2022/05/04 13:24:25;;;;;;;8.48;3.95;;;;;;;;;;5282968;28;20023;-69
2022/05/04 13:26:56;;;;;;;12.35;3.95;;;;;;;;;;5283001;28;20724;-69
2022/05/04 13:29:27;;;;;;;6.82;4.68;;;;;;;;;;5283176;28;20013;-70
2022/05/04 13:31:58;;;;;;;6.17;4.00;;;;;;;;;;5283495;28;20052;-71
2022/05/04 13:34:29;;;;;;;12.03;4.53;;;;;;;;;;5282212;28;20764;-71
2022/05/04 13:37:01;;;;;;;9.73;4.60;;;;;;;;;;5282450;28;20291;-71
2022/05/04 13:39:32;;;;;;;19.92;4.72;;;;;;;;;;5283083;28;20452;-71
2022/05/04 13:42:04;;;;;;;7.00;3.83;;;;;;;;;;5281959;28;20506;-70
2022/05/04 13:44:35;;;;;;;9.27;4.90;;;;;;;;;;5281409;28;20418;-71
2022/05/04 13:47:07;;;;;;;13.98;4.95;;;;;;;;;;5282245;28;20040;-69
2022/05/04 13:49:38;;;;;;;13.60;4.90;;;;;;;;;;5281923;28;20110;-70
2022/05/04 13:54:59;;;;;;;12.18;4.90;;;;;;;;;;5282049;28;20071;-69
2022/05/04 13:57:31;;;;;;;11.75;5.68;;;;;;;;;;5281738;28;20052;-69
2022/05/04 14:00:02;;;;;;;13.02;5.28;;;;;;;;;;5282058;28;20447;-70
2022/05/04 14:02:34;;;;;;;23.33;6.50;;;;;;;;;;5280749;28;20028;-70
2022/05/04 14:05:05;;;;;;;11.77;6.18;;;;;;;;;;5280921;28;20016;-70
2022/05/04 14:07:36;;;;;;;21.08;5.68;;;;;;;;;;5280736;28;20017;-71
2022/05/04 14:10:08;;;;;;;33.08;6.38;;;;;;;;;;5279118;28;20059;-71
2022/05/04 14:12:39;;;;;;;14.23;5.50;;;;;;;;;;5279515;28;20013;-70
2022/05/04 14:15:11;;;;;;;12.32;6.13;;;;;;;;;;5279572;28;20099;-69
2022/05/04 14:17:44;;;;;;;12.57;5.97;;;;;;;;;;5278288;28;20040;-69
2022/05/04 14:20:16;;;;;;;13.88;6.00;;;;;;;;;;5279250;28;20095;-70
2022/05/04 14:22:48;;;;;;;11.88;6.35;;;;;;;;;;5278380;28;20190;-68
2022/05/04 14:25:19;;;;;;;11.73;5.90;;;;;;;;;;5279091;28;20647;-69
2022/05/04 14:27:50;;;;;;;23.00;6.18;;;;;;;;;;5279899;28;20032;-69
2022/05/04 14:30:21;;;;;;;15.55;5.75;;;;;;;;;;5278004;28;20052;-70
2022/05/04 14:32:53;;;;;;;9.30;5.07;;;;;;;;;;5279483;28;20447;-68
2022/05/04 14:35:24;;;;;;;10.13;4.68;;;;;;;;;;5280823;28;20108;-71
2022/05/04 14:37:55;;;;;;;7.82;3.95;;;;;;;;;;5281121;28;20028;-70
2022/05/04 14:40:26;;;;;;;9.43;4.18;;;;;;;;;;5281506;28;20275;-71
2022/05/04 14:42:58;;;;;;;7.72;3.92;;;;;;;;;;5282058;28;20479;-71
2022/05/04 14:45:29;;;;;;;8.57;4.60;;;;;;;;;;5281230;28;20451;-70
2022/05/04 14:48:01;;;;;;;13.02;5.47;;;;;;;;;;5281875;28;20024;-69
2022/05/04 14:50:32;;;;;;;9.77;4.93;;;;;;;;;;5281339;28;20349;-70
2022/05/04 14:53:04;;;;;;;11.85;5.00;;;;;;;;;;5281857;28;20118;-70
2022/05/04 14:55:35;;;;;;;11.05;4.35;;;;;;;;;;5281733;28;20020;-71
2022/05/04 14:58:06;;;;;;;10.60;4.25;;;;;;;;;;5280700;28;20023;-70
2022/05/04 15:00:38;;;;;;;10.48;3.90;;;;;;;;;;5281601;28;20385;-69
2022/05/04 15:05:59;;;;;;;10.25;3.33;;;;;;;;;;5281261;28;20040;-69
2022/05/04 15:08:30;;;;;;;9.93;4.23;;;;;;;;;;5280905;28;20013;-70
2022/05/04 15:11:02;;;;;;;14.93;4.53;;;;;;;;;;5274652;28;20301;-70
2022/05/04 15:13:33;;;;;;;15.25;4.55;;;;;;;;;;5269474;28;20043;-69
2022/05/04 15:16:05;;;;;;;11.93;5.10;;;;;;;;;;5262759;28;20032;-70
2022/05/04 15:18:36;;;;;;;8.65;3.70;;;;;;;;;;5259568;28;20017;-68
2022/05/04 15:21:07;;;;;;;10.90;4.13;;;;;;;;;;5262138;28;20032;-68
2022/05/04 15:23:38;;;;;;;10.52;4.13;;;;;;;;;;5278528;28;20037;-70
2022/05/04 15:26:10;;;;;;;10.90;3.78;;;;;;;;;;5279683;28;20070;-69
2022/05/04 15:28:41;;;;;;;13.05;3.20;;;;;;;;;;5280958;28;20161;-69
2022/05/04 15:31:12;;;;;;;5.82;3.05;;;;;;;;;;5281284;28;20273;-68
2022/05/04 15:33:43;;;;;;;9.17;3.63;;;;;;;;;;5280498;28;20487;-69
2022/05/04 15:36:14;;;;;;;10.50;5.43;;;;;;;;;;5280835;28;20294;-68
2022/05/04 15:38:45;;;;;;;8.38;3.78;;;;;;;;;;5281448;28;20274;-69
2022/05/04 15:41:17;;;;;;;6.38;3.47;;;;;;;;;;5280243;28;20024;-68
2022/05/04 15:43:48;;;;;;;10.02;3.25;;;;;;;;;;5281072;28;20539;-71
2022/05/04 15:46:19;;;;;;;9.23;3.80;;;;;;;;;;5280708;28;20544;-69